Time;durP1;ratioP1;P1;durP2;ratioP2;P2;SDS_P1;SDS_P2;PMS_P1;PMS_P2;Temp;Humidity;BMP_temperature;BMP_pressure;BME280_temperature;BME280_humidity;BME280_pressure;Samples;Min_cycle;Max_cycle;Signal;HPM_P1;HPM_P2
2022/09/27 05:32:18;;;;;;;1.80;0.20;;;9.50;99.90;;;;;;4703147;30;20050;-88
2022/09/27 05:35:18;;;;;;;1.35;0.20;;;9.50;99.90;;;;;;4687422;30;20372;-90
2022/09/27 05:37:59;;;;;;;6.22;0.50;;;9.90;99.90;;;;;;4798621;25;20060;-85
2022/09/27 05:53:20;;;;;;;;;;;;;;;;;;;;;
2022/09/27 05:56:25;;;;;;;0.47;0.20;;;9.40;99.90;;;;;;4611798;31;20535;-86
2022/09/27 05:59:24;;;;;;;1.83;0.28;;;9.40;99.90;;;;;;4627943;30;20142;-88
2022/09/27 06:02:10;;;;;;;0.30;0.15;;;8.60;99.90;;;;;;4620138;30;20070;-86
2022/09/27 06:05:17;;;;;;;0.47;0.10;;;9.50;99.90;;;;;;4647699;30;20110;-87
2022/09/27 06:08:38;;;;;;;;;;;;;;;;;;;;;
2022/09/27 06:20:13;;;;;;;;;;;;;;;;;;;;;
2022/09/27 06:22:47;;;;;;;0.10;0.10;;;10.10;99.90;;;;;;4613303;30;20066;-86
2022/09/27 06:25:48;;;;;;;0.47;0.00;;;10.20;99.90;;;;;;4583370;31;20056;-86
2022/09/27 06:28:19;;;;;;;0.20;0.10;;;9.40;99.90;;;;;;4588102;31;20084;-88
2022/09/27 06:30:50;;;;;;;0.52;0.10;;;10.20;99.90;;;;;;4561838;31;20060;-87
2022/09/27 06:33:20;;;;;;;0.50;0.10;;;9.40;99.90;;;;;;4588412;31;20571;-85
2022/09/27 06:35:52;;;;;;;2.83;0.30;;;10.10;99.90;;;;;;4587831;31;20052;-89
2022/09/27 06:38:20;;;;;;;0.30;0.20;;;9.60;99.90;;;;;;4573334;31;20419;-85
2022/09/27 06:40:48;;;;;;;1.95;0.20;;;9.50;99.90;;;;;;4588870;31;20098;-86
2022/09/27 06:43:31;;;;;;;1.23;0.30;;;9.70;99.90;;;;;;4588879;31;20060;-88
2022/09/27 06:46:03;;;;;;;0.45;0.10;;;9.80;99.90;;;;;;4587367;31;20099;-86
2022/09/27 06:48:30;;;;;;;3.63;0.20;;;9.60;99.90;;;;;;4591862;31;20067;-87
2022/09/27 06:50:59;;;;;;;0.57;0.20;;;8.80;99.90;;;;;;4573527;31;20069;-85
2022/09/27 06:53:25;;;;;;;3.92;0.15;;;10.10;99.90;;;;;;4578279;31;20463;-86
2022/09/27 06:55:57;;;;;;;0.28;0.20;;;9.60;99.90;;;;;;4587414;31;20188;-86
2022/09/27 07:01:08;;;;;;;0.90;0.10;;;9.60;99.90;;;;;;4578091;31;20163;-87
2022/09/27 07:03:40;;;;;;;2.63;0.10;;;10.40;99.90;;;;;;4641176;30;20069;-87
2022/09/27 07:06:10;;;;;;;0.20;0.20;;;10.00;99.90;;;;;;4651193;30;20210;-87
2022/09/27 07:08:51;;;;;;;1.65;0.20;;;9.40;99.90;;;;;;4658639;30;20058;-87
2022/09/27 07:11:22;;;;;;;0.10;0.10;;;9.80;99.90;;;;;;4624430;30;20062;-87
2022/09/27 07:14:10;;;;;;;0.20;0.10;;;10.00;99.90;;;;;;4680468;24;20133;-88
2022/09/27 07:24:13;;;;;;;0.80;0.20;;;9.60;99.90;;;;;;5110416;24;20061;-89
2022/09/27 07:27:15;;;;;;;2.03;0.30;;;9.60;99.90;;;;;;4662864;30;20082;-89
2022/09/27 07:30:20;;;;;;;2.03;0.20;;;9.60;99.90;;;;;;4715293;24;20158;-89
2022/09/27 07:36:29;;;;;;;0.60;0.10;;;9.80;99.90;;;;;;4788119;25;20077;-87
2022/09/27 07:39:35;;;;;;;0.80;0.10;;;9.50;99.90;;;;;;4676228;30;20107;-87
2022/09/27 07:42:06;;;;;;;1.73;0.28;;;10.30;99.90;;;;;;4692919;25;20057;-87
2022/09/27 07:53:50;;;;;;;;;;;;;;;;;;;;;
2022/09/27 08:18:57;;;;;;;0.25;0.20;;;10.70;99.90;;;;;;3252840;24;20052;-89
2022/09/27 08:28:49;;;;;;;0.43;0.25;;;11.00;99.90;;;;;;5573977;24;20032;-89
2022/09/27 08:32:17;;;;;;;1.88;0.10;;;11.00;99.90;;;;;;4673705;30;20133;-88
2022/09/27 08:42:46;;;;;;;;;;;;;;;;;;;;;
2022/09/27 09:45:48;;;;;;;1.43;0.33;;;12.10;99.90;;;;;;494211;28;21289;-86
2022/09/27 09:48:41;;;;;;;0.70;0.20;;;12.20;99.90;;;;;;4714208;30;20406;-87
2022/09/27 09:51:37;;;;;;;0.40;0.10;;;12.10;99.90;;;;;;4709751;30;20083;-86
2022/09/27 09:54:18;;;;;;;2.00;0.20;;;12.10;99.90;;;;;;4710304;30;20053;-87
2022/09/27 09:56:51;;;;;;;0.30;0.10;;;12.00;99.90;;;;;;4722694;30;20111;-87
2022/09/27 09:59:38;;;;;;;;;;;;;;;;;;;;;
2022/09/27 10:21:44;;;;;;;0.87;0.00;;;12.00;99.90;;;;;;4769651;24;20056;-90
2022/09/27 10:24:19;;;;;;;1.40;0.17;;;12.10;99.90;;;;;;4757842;30;20294;-90
2022/09/27 10:32:26;;;;;;;0.73;0.10;;;12.10;99.90;;;;;;4761930;30;20075;-86
2022/09/27 10:34:52;;;;;;;1.38;0.10;;;12.30;99.90;;;;;;4734335;30;20088;-85
2022/09/27 10:37:21;;;;;;;2.20;0.22;;;11.70;99.90;;;;;;4727565;30;20048;-84
2022/09/27 10:39:50;;;;;;;0.10;0.10;;;12.60;99.90;;;;;;4729754;30;20131;-85
2022/09/27 10:42:22;;;;;;;0.28;0.00;;;12.80;99.90;;;;;;4729783;30;20052;-86
2022/09/27 10:44:48;;;;;;;0.90;0.20;;;13.10;99.90;;;;;;4729374;30;20051;-86
2022/09/27 10:47:21;;;;;;;1.00;0.15;;;13.00;99.90;;;;;;4730351;30;20052;-85
2022/09/27 10:49:49;;;;;;;0.50;0.10;;;13.20;99.90;;;;;;4721513;30;20411;-85
2022/09/27 10:52:17;;;;;;;1.42;0.10;;;13.70;99.90;;;;;;4707511;30;20056;-86
2022/09/27 10:54:55;;;;;;;0.63;0.17;;;13.10;99.90;;;;;;4725176;30;20116;-85
2022/09/27 10:57:28;;;;;;;0.68;0.10;;;13.50;99.90;;;;;;4727270;30;20110;-87
2022/09/27 11:00:05;;;;;;;0.17;0.00;;;13.50;99.90;;;;;;4726849;30;20059;-84
2022/09/27 11:02:34;;;;;;;1.17;0.10;;;13.50;99.90;;;;;;4732625;30;20105;-84
2022/09/27 11:05:12;;;;;;;0.10;0.10;;;13.60;99.90;;;;;;4728526;30;20118;-83
2022/09/27 11:08:27;;;;;;;0.28;0.10;;;13.60;99.90;;;;;;4728871;30;20130;-86
2022/09/27 11:11:05;;;;;;;0.10;0.10;;;13.60;99.90;;;;;;4723605;30;20054;-84
2022/09/27 11:13:34;;;;;;;0.85;0.10;;;13.30;99.90;;;;;;4721230;30;20052;-87
2022/09/27 11:20:19;;;;;;;0.98;0.00;;;13.70;99.90;;;;;;4626833;30;20059;-85
2022/09/27 11:26:29;;;;;;;0.00;0.00;;;12.90;99.90;;;;;;4629821;31;20062;-87
2022/09/27 11:29:06;;;;;;;1.35;0.22;;;12.80;99.90;;;;;;4616478;31;20153;-86
2022/09/27 11:31:41;;;;;;;1.35;0.10;;;12.80;99.90;;;;;;4629544;31;20529;-87
2022/09/27 11:34:20;;;;;;;0.32;0.00;;;12.70;99.90;;;;;;4615632;31;20503;-86
2022/09/27 11:37:16;;;;;;;1.45;0.10;;;12.80;99.90;;;;;;4628878;31;20415;-87
2022/09/27 11:39:59;;;;;;;2.53;0.10;;;12.90;99.90;;;;;;4629525;31;20090;-87
2022/09/27 11:42:46;;;;;;;0.20;0.08;;;13.00;99.90;;;;;;4629101;31;20500;-87
2022/09/27 11:45:42;;;;;;;1.55;0.10;;;13.00;99.90;;;;;;4629228;31;20066;-86
2022/09/27 11:48:19;;;;;;;0.05;0.05;;;13.20;99.90;;;;;;4615587;31;20142;-88
2022/09/27 11:51:42;;;;;;;0.30;0.10;;;13.10;99.90;;;;;;4677396;24;20061;-89
2022/09/27 12:29:57;;;;;;;3.63;0.15;;;13.00;99.90;;;;;;4738976;24;20071;-87
2022/09/27 12:35:26;;;;;;;1.00;0.00;;;13.20;99.90;;;;;;4744948;24;20065;-87
2022/09/27 13:22:47;;;;;;;0.68;0.10;;;13.20;99.90;;;;;;4770231;24;20067;-87
2022/09/27 13:25:53;;;;;;;2.20;0.10;;;13.30;99.90;;;;;;4724101;30;20571;-88
2022/09/27 13:28:34;;;;;;;0.08;0.00;;;13.10;99.90;;;;;;4733709;24;20065;-89
2022/09/27 13:31:28;;;;;;;0.00;0.00;;;13.00;99.90;;;;;;4695691;30;20049;-86
2022/09/27 13:34:00;;;;;;;0.10;0.00;;;12.90;99.90;;;;;;4691799;30;20049;-86
2022/09/27 13:36:36;;;;;;;0.65;0.03;;;12.90;99.90;;;;;;4700792;30;20057;-85
2022/09/27 13:39:25;;;;;;;0.05;0.05;;;12.20;99.90;;;;;;4684548;30;20061;-87
2022/09/27 13:42:07;;;;;;;;;;;;;;;;;;;;;
2022/09/27 13:44:56;;;;;;;0.90;0.00;;;12.50;99.90;;;;;;4623295;30;20067;-86
2022/09/27 13:47:39;;;;;;;0.25;0.10;;;12.50;99.90;;;;;;4639468;30;20150;-85
2022/09/27 13:50:26;;;;;;;0.10;0.00;;;12.40;99.90;;;;;;4612920;30;20051;-86
2022/09/27 13:53:11;;;;;;;;;;;;;;;;;;;;;
2022/09/27 13:55:49;;;;;;;0.03;0.00;;;12.40;99.90;;;;;;4617968;30;20135;-86
2022/09/27 13:58:40;;;;;;;0.52;0.10;;;13.10;99.90;;;;;;4620443;30;20142;-87
2022/09/27 14:01:37;;;;;;;1.50;0.10;;;13.10;99.90;;;;;;4622567;31;20406;-89
2022/09/27 14:04:53;;;;;;;0.00;0.00;;;12.50;99.90;;;;;;4620634;30;20066;-85
2022/09/27 14:07:45;;;;;;;;;;;;;;;;;;;;;
2022/09/27 14:10:42;;;;;;;0.25;0.10;;;12.50;99.90;;;;;;4603995;31;20056;-87
2022/09/27 14:13:18;;;;;;;0.20;0.05;;;12.50;99.90;;;;;;4587698;31;20148;-86
2022/09/27 14:15:58;;;;;;;2.17;0.10;;;12.60;99.90;;;;;;4594170;31;20052;-86
2022/09/27 14:18:43;;;;;;;2.38;0.10;;;12.30;99.90;;;;;;4606611;30;20054;-86
2022/09/27 14:21:21;;;;;;;0.20;0.10;;;12.60;99.90;;;;;;4658138;30;20046;-86
2022/09/27 14:23:47;;;;;;;0.77;0.10;;;12.60;99.90;;;;;;4663445;30;20050;-85
2022/09/27 14:26:35;;;;;;;0.10;0.05;;;12.80;99.90;;;;;;4658002;30;20132;-87
2022/09/27 14:29:29;;;;;;;0.15;0.08;;;13.10;99.90;;;;;;4659427;30;20568;-85
2022/09/27 14:33:02;;;;;;;2.17;0.10;;;12.60;99.90;;;;;;4673263;30;20433;-88
2022/09/27 14:41:59;;;;;;;0.10;0.10;;;12.40;99.90;;;;;;4727902;24;20061;-86
2022/09/27 14:54:25;;;;;;;0.00;0.00;;;12.10;99.90;;;;;;4961626;24;20453;-87
2022/09/27 15:21:37;;;;;;;0.00;0.00;;;12.10;99.90;;;;;;4739450;24;20051;-86
2022/09/27 15:24:41;;;;;;;0.10;0.00;;;12.20;99.90;;;;;;4719639;30;20127;-90
2022/09/27 15:27:37;;;;;;;0.55;0.20;;;12.10;99.90;;;;;;4685009;25;20052;-86
2022/09/27 15:33:19;;;;;;;0.85;0.10;;;11.90;99.90;;;;;;4746681;24;20069;-88
2022/09/27 15:36:40;;;;;;;0.00;0.00;;;11.90;99.90;;;;;;4725161;24;20400;-87
2022/09/27 15:42:05;;;;;;;0.40;0.10;;;11.80;99.90;;;;;;4790075;24;20053;-89
2022/09/27 15:44:51;;;;;;;0.85;0.10;;;11.80;99.90;;;;;;4751628;24;20059;-90
2022/09/27 15:47:37;;;;;;;0.08;0.08;;;11.70;99.90;;;;;;4712204;30;20063;-90
2022/09/27 15:50:29;;;;;;;0.22;0.10;;;11.70;99.90;;;;;;4703639;30;20111;-88
2022/09/27 16:05:23;;;;;;;0.52;0.03;;;11.40;99.90;;;;;;4718211;24;20535;-91
2022/09/27 16:07:52;;;;;;;0.00;0.00;;;12.10;99.90;;;;;;4700978;30;20496;-84
2022/09/27 16:10:57;;;;;;;2.70;0.10;;;11.40;99.90;;;;;;4721543;24;20056;-89
2022/09/27 16:17:56;;;;;;;0.30;0.10;;;11.30;99.90;;;;;;4778780;24;20564;31
2022/09/27 16:28:07;;;;;;;0.03;0.03;;;11.30;99.90;;;;;;5271319;24;20064;-88
2022/09/27 16:44:57;;;;;;;1.05;0.10;;;11.20;99.90;;;;;;5153119;24;20059;-88
2022/09/27 16:47:32;;;;;;;0.10;0.10;;;11.00;99.90;;;;;;4733994;30;20067;-88
2022/09/27 16:53:12;;;;;;;0.25;0.20;;;11.00;99.90;;;;;;4695259;30;20093;-86
2022/09/27 16:56:10;;;;;;;0.20;0.13;;;11.30;99.90;;;;;;4695861;30;20100;-88
2022/09/27 17:13:35;;;;;;;0.98;0.22;;;10.90;99.90;;;;;;4614521;24;20056;-91
2022/09/27 17:27:34;;;;;;;0.70;0.40;;;10.20;99.90;;;;;;4742241;24;20096;-89
2022/09/27 21:44:23;;;;;;;2.23;0.33;;;8.20;99.90;;;;;;5161987;24;20060;-90
